sensor_id;sensor_type;location;lat;lon;timestamp;pressure;altitude;pressure_sealevel;temperature;humidity
51083;BME280;37131;42.694;23.350;2023-01-29T00:02:00;95624.59;;;-0.12;93.56
51083;BME280;37131;42.694;23.350;2023-01-29T00:04:27;95618.44;;;-0.01;93.06
51083;BME280;37131;42.694;23.350;2023-01-29T00:06:53;95629.31;;;0.19;92.36
51083;BME280;37131;42.694;23.350;2023-01-29T00:09:18;95636.34;;;0.17;91.49
51083;BME280;37131;42.694;23.350;2023-01-29T00:11:44;95596.13;;;-0.09;92.57
51083;BME280;37131;42.694;23.350;2023-01-29T00:14:09;95636.00;;;0.12;92.12
51083;BME280;37131;42.694;23.350;2023-01-29T00:16:35;95639.25;;;-0.04;93.37
51083;BME280;37131;42.694;23.350;2023-01-29T00:19:01;95590.13;;;-0.54;93.41
51083;BME280;37131;42.694;23.350;2023-01-29T00:21:26;95639.38;;;-0.24;94.27
51083;BME280;37131;42.694;23.350;2023-01-29T00:23:55;95632.66;;;-0.25;95.23
51083;BME280;37131;42.694;23.350;2023-01-29T00:26:21;95640.69;;;-0.02;94.11
51083;BME280;37131;42.694;23.350;2023-01-29T00:28:46;95639.75;;;-0.19;93.56
51083;BME280;37131;42.694;23.350;2023-01-29T00:31:14;95641.84;;;0.04;93.20
51083;BME280;37131;42.694;23.350;2023-01-29T00:33:39;95644.53;;;-0.06;93.36
51083;BME280;37131;42.694;23.350;2023-01-29T00:36:07;95648.25;;;0.00;93.80
51083;BME280;37131;42.694;23.350;2023-01-29T00:38:34;95651.03;;;0.07;93.71
51083;BME280;37131;42.694;23.350;2023-01-29T00:43:53;95654.16;;;0.19;91.88
51083;BME280;37131;42.694;23.350;2023-01-29T00:46:36;95642.03;;;-0.15;92.70
51083;BME280;37131;42.694;23.350;2023-01-29T00:49:03;95651.75;;;-0.01;94.34
51083;BME280;37131;42.694;23.350;2023-01-29T00:51:29;95644.75;;;0.27;93.56
51083;BME280;37131;42.694;23.350;2023-01-29T00:53:55;95637.91;;;0.10;93.16
51083;BME280;37131;42.694;23.350;2023-01-29T00:56:23;95648.88;;;0.20;93.39
51083;BME280;37131;42.694;23.350;2023-01-29T00:58:49;95633.66;;;0.45;92.53
51083;BME280;37131;42.694;23.350;2023-01-29T01:01:14;95638.22;;;0.33;92.23
51083;BME280;37131;42.694;23.350;2023-01-29T01:03:40;95560.78;;;-0.41;93.38
51083;BME280;37131;42.694;23.350;2023-01-29T01:06:08;95636.28;;;0.09;92.67
51083;BME280;37131;42.694;23.350;2023-01-29T01:08:34;95646.59;;;0.17;93.14
51083;BME280;37131;42.694;23.350;2023-01-29T01:11:19;95637.06;;;0.27;92.35
51083;BME280;37131;42.694;23.350;2023-01-29T01:13:44;95634.78;;;-0.20;92.90
51083;BME280;37131;42.694;23.350;2023-01-29T01:16:15;95636.75;;;-0.14;94.39
51083;BME280;37131;42.694;23.350;2023-01-29T01:18:41;95631.47;;;-0.12;94.16
51083;BME280;37131;42.694;23.350;2023-01-29T01:21:07;95636.28;;;0.09;93.16
51083;BME280;37131;42.694;23.350;2023-01-29T01:23:32;95624.63;;;0.14;92.18
51083;BME280;37131;42.694;23.350;2023-01-29T01:25:58;95636.31;;;-0.09;93.14
51083;BME280;37131;42.694;23.350;2023-01-29T01:28:24;95634.47;;;0.01;93.68
51083;BME280;37131;42.694;23.350;2023-01-29T01:30:50;95631.53;;;0.14;93.42
51083;BME280;37131;42.694;23.350;2023-01-29T01:33:15;95641.06;;;0.04;94.49
51083;BME280;37131;42.694;23.350;2023-01-29T01:35:41;95642.47;;;-0.20;94.05
51083;BME280;37131;42.694;23.350;2023-01-29T01:38:06;95639.28;;;0.04;94.26
51083;BME280;37131;42.694;23.350;2023-01-29T01:40:32;95641.19;;;0.20;92.85
51083;BME280;37131;42.694;23.350;2023-01-29T01:42:58;95639.63;;;0.27;93.04
51083;BME280;37131;42.694;23.350;2023-01-29T01:45:33;95640.44;;;0.28;92.64
51083;BME280;37131;42.694;23.350;2023-01-29T01:48:15;95637.44;;;0.14;92.69
51083;BME280;37131;42.694;23.350;2023-01-29T01:50:48;95641.44;;;-0.09;94.20
51083;BME280;37131;42.694;23.350;2023-01-29T01:53:28;95643.06;;;-0.08;95.44
51083;BME280;37131;42.694;23.350;2023-01-29T01:55:57;95639.81;;;-0.28;96.19
51083;BME280;37131;42.694;23.350;2023-01-29T01:58:34;95629.81;;;-0.22;95.47
51083;BME280;37131;42.694;23.350;2023-01-29T02:01:03;95651.84;;;-0.29;96.66
51083;BME280;37131;42.694;23.350;2023-01-29T02:03:34;95657.31;;;-0.24;96.92
51083;BME280;37131;42.694;23.350;2023-01-29T02:06:20;95647.38;;;-0.09;97.68
51083;BME280;37131;42.694;23.350;2023-01-29T02:09:08;95651.34;;;-0.14;98.14
51083;BME280;37131;42.694;23.350;2023-01-29T02:11:55;95642.03;;;-0.15;97.20
51083;BME280;37131;42.694;23.350;2023-01-29T02:14:21;95636.97;;;-0.07;96.49
51083;BME280;37131;42.694;23.350;2023-01-29T02:16:46;95648.38;;;0.16;96.14
51083;BME280;37131;42.694;23.350;2023-01-29T02:22:08;95648.69;;;0.13;95.35
51083;BME280;37131;42.694;23.350;2023-01-29T02:27:23;95655.72;;;-0.07;96.65
51083;BME280;37131;42.694;23.350;2023-01-29T02:30:16;95609.66;;;-0.34;96.25
51083;BME280;37131;42.694;23.350;2023-01-29T02:32:52;95659.81;;;-0.14;96.60
51083;BME280;37131;42.694;23.350;2023-01-29T02:36:43;95674.03;;;-0.20;98.89
51083;BME280;37131;42.694;23.350;2023-01-29T02:38:48;95669.13;;;-0.13;97.81
51083;BME280;37131;42.694;23.350;2023-01-29T02:41:41;95675.63;;;-0.19;98.97
51083;BME280;37131;42.694;23.350;2023-01-29T02:46:54;95667.06;;;-0.09;99.25
51083;BME280;37131;42.694;23.350;2023-01-29T02:49:45;95674.16;;;-0.03;98.63
51083;BME280;37131;42.694;23.350;2023-01-29T02:52:25;95669.34;;;-0.06;99.86
51083;BME280;37131;42.694;23.350;2023-01-29T02:54:56;95675.31;;;0.21;99.65
51083;BME280;37131;42.694;23.350;2023-01-29T02:57:30;95662.47;;;-0.06;98.78
51083;BME280;37131;42.694;23.350;2023-01-29T03:00:03;95671.81;;;0.04;98.00
51083;BME280;37131;42.694;23.350;2023-01-29T03:02:41;95675.78;;;-0.02;98.29
51083;BME280;37131;42.694;23.350;2023-01-29T03:05:14;95677.91;;;0.03;97.95
51083;BME280;37131;42.694;23.350;2023-01-29T03:07:47;95680.63;;;0.01;98.67
51083;BME280;37131;42.694;23.350;2023-01-29T03:10:23;95672.63;;;0.04;97.62
51083;BME280;37131;42.694;23.350;2023-01-29T03:12:54;95598.41;;;-0.42;98.75
51083;BME280;37131;42.694;23.350;2023-01-29T03:15:41;95675.78;;;-0.20;99.92
51083;BME280;37131;42.694;23.350;2023-01-29T03:18:14;95669.59;;;0.09;100.00
51083;BME280;37131;42.694;23.350;2023-01-29T03:20:49;95675.03;;;0.24;98.31
51083;BME280;37131;42.694;23.350;2023-01-29T03:23:28;95675.53;;;0.27;97.76
51083;BME280;37131;42.694;23.350;2023-01-29T03:26:15;95681.25;;;0.21;97.45
51083;BME280;37131;42.694;23.350;2023-01-29T03:29:02;95687.25;;;0.30;96.34
51083;BME280;37131;42.694;23.350;2023-01-29T03:31:48;95685.72;;;0.37;96.39
51083;BME280;37131;42.694;23.350;2023-01-29T03:34:42;95683.16;;;0.19;96.14
51083;BME280;37131;42.694;23.350;2023-01-29T03:37:24;95682.56;;;0.07;95.63
51083;BME280;37131;42.694;23.350;2023-01-29T03:39:51;95683.00;;;0.21;96.04
51083;BME280;37131;42.694;23.350;2023-01-29T03:42:27;95617.88;;;-0.13;94.85
51083;BME280;37131;42.694;23.350;2023-01-29T03:45:06;95669.19;;;0.40;94.50
51083;BME280;37131;42.694;23.350;2023-01-29T03:47:45;95679.59;;;0.56;94.28
51083;BME280;37131;42.694;23.350;2023-01-29T03:50:26;95680.69;;;0.54;93.38
51083;BME280;37131;42.694;23.350;2023-01-29T03:56:20;95673.00;;;0.09;94.50
51083;BME280;37131;42.694;23.350;2023-01-29T04:01:47;95656.00;;;0.08;95.99
51083;BME280;37131;42.694;23.350;2023-01-29T04:04:28;95681.47;;;0.28;96.00
51083;BME280;37131;42.694;23.350;2023-01-29T04:06:59;95686.25;;;0.05;96.64
51083;BME280;37131;42.694;23.350;2023-01-29T04:09:32;95680.13;;;-0.03;98.63
51083;BME280;37131;42.694;23.350;2023-01-29T04:12:08;95686.34;;;-0.05;99.98
51083;BME280;37131;42.694;23.350;2023-01-29T04:14:34;95690.97;;;-0.09;100.00
51083;BME280;37131;42.694;23.350;2023-01-29T04:17:05;95671.41;;;-0.28;100.00
51083;BME280;37131;42.694;23.350;2023-01-29T04:19:33;95689.25;;;-0.18;100.00
51083;BME280;37131;42.694;23.350;2023-01-29T04:22:18;95693.28;;;-0.15;100.00
51083;BME280;37131;42.694;23.350;2023-01-29T04:24:47;95684.34;;;-0.11;99.22
51083;BME280;37131;42.694;23.350;2023-01-29T04:27:35;95632.44;;;-0.67;100.00
51083;BME280;37131;42.694;23.350;2023-01-29T04:35:21;95705.25;;;-0.34;100.00
51083;BME280;37131;42.694;23.350;2023-01-29T04:41:00;95702.00;;;-0.26;100.00
51083;BME280;37131;42.694;23.350;2023-01-29T04:43:50;95699.94;;;-0.41;100.00
51083;BME280;37131;42.694;23.350;2023-01-29T04:46:56;95695.53;;;-0.48;100.00
51083;BME280;37131;42.694;23.350;2023-01-29T04:54:41;95709.09;;;-0.20;99.84
51083;BME280;37131;42.694;23.350;2023-01-29T04:57:39;95709.41;;;-0.05;98.52
51083;BME280;37131;42.694;23.350;2023-01-29T05:02:40;95711.91;;;0.05;96.77
51083;BME280;37131;42.694;23.350;2023-01-29T05:05:07;95643.13;;;-0.36;97.75
51083;BME280;37131;42.694;23.350;2023-01-29T05:07:35;95673.56;;;-0.33;97.09
51083;BME280;37131;42.694;23.350;2023-01-29T05:10:04;95707.06;;;0.02;97.29
51083;BME280;37131;42.694;23.350;2023-01-29T05:12:32;95648.03;;;-0.43;97.10
51083;BME280;37131;42.694;23.350;2023-01-29T05:15:01;95714.59;;;-0.15;98.70
51083;BME280;37131;42.694;23.350;2023-01-29T05:17:27;95698.78;;;-0.10;98.37
51083;BME280;37131;42.694;23.350;2023-01-29T05:19:54;95709.63;;;0.02;98.02
51083;BME280;37131;42.694;23.350;2023-01-29T05:22:20;95717.75;;;0.15;97.15
51083;BME280;37131;42.694;23.350;2023-01-29T05:24:48;95719.31;;;0.08;97.50
51083;BME280;37131;42.694;23.350;2023-01-29T05:27:17;95724.34;;;0.17;96.49
51083;BME280;37131;42.694;23.350;2023-01-29T05:30:03;95722.19;;;0.31;95.91
51083;BME280;37131;42.694;23.350;2023-01-29T05:32:29;95721.25;;;0.32;95.37
51083;BME280;37131;42.694;23.350;2023-01-29T05:34:54;95727.41;;;0.39;94.04
51083;BME280;37131;42.694;23.350;2023-01-29T05:37:19;95711.16;;;-0.06;95.21
51083;BME280;37131;42.694;23.350;2023-01-29T05:39:45;95734.00;;;0.06;97.00
51083;BME280;37131;42.694;23.350;2023-01-29T05:42:10;95723.44;;;0.09;96.79
51083;BME280;37131;42.694;23.350;2023-01-29T05:44:36;95730.19;;;0.10;96.33
51083;BME280;37131;42.694;23.350;2023-01-29T05:47:01;95724.88;;;0.03;96.47
51083;BME280;37131;42.694;23.350;2023-01-29T05:49:27;95728.38;;;0.20;96.33
51083;BME280;37131;42.694;23.350;2023-01-29T05:51:52;95717.63;;;0.16;96.42
51083;BME280;37131;42.694;23.350;2023-01-29T05:54:18;95732.59;;;0.29;96.25
51083;BME280;37131;42.694;23.350;2023-01-29T05:56:43;95699.44;;;0.10;95.85
51083;BME280;37131;42.694;23.350;2023-01-29T05:59:08;95739.16;;;0.24;95.53
51083;BME280;37131;42.694;23.350;2023-01-29T06:01:34;95748.16;;;0.10;96.57
51083;BME280;37131;42.694;23.350;2023-01-29T06:03:59;95747.56;;;0.34;96.44
51083;BME280;37131;42.694;23.350;2023-01-29T06:06:25;95741.81;;;0.58;96.03
51083;BME280;37131;42.694;23.350;2023-01-29T06:08:50;95737.34;;;0.60;93.85
51083;BME280;37131;42.694;23.350;2023-01-29T06:11:16;95748.50;;;0.51;94.33
51083;BME280;37131;42.694;23.350;2023-01-29T06:13:43;95763.91;;;0.33;95.15
51083;BME280;37131;42.694;23.350;2023-01-29T06:16:10;95754.31;;;0.35;96.02
51083;BME280;37131;42.694;23.350;2023-01-29T06:18:36;95763.38;;;0.11;96.85
51083;BME280;37131;42.694;23.350;2023-01-29T06:21:04;95769.19;;;0.13;98.96
51083;BME280;37131;42.694;23.350;2023-01-29T06:23:30;95771.16;;;0.20;98.85
51083;BME280;37131;42.694;23.350;2023-01-29T06:26:14;95774.16;;;0.33;99.02
51083;BME280;37131;42.694;23.350;2023-01-29T06:28:40;95767.94;;;0.36;98.82
51083;BME280;37131;42.694;23.350;2023-01-29T06:31:06;95774.56;;;0.64;97.13
51083;BME280;37131;42.694;23.350;2023-01-29T06:33:33;95780.63;;;0.37;98.01
51083;BME280;37131;42.694;23.350;2023-01-29T06:36:01;95772.03;;;0.46;97.28
51083;BME280;37131;42.694;23.350;2023-01-29T06:38:27;95780.09;;;0.33;97.65
51083;BME280;37131;42.694;23.350;2023-01-29T06:40:53;95785.00;;;0.45;98.57
51083;BME280;37131;42.694;23.350;2023-01-29T06:43:19;95743.16;;;0.08;98.93
51083;BME280;37131;42.694;23.350;2023-01-29T06:45:54;95783.47;;;0.16;99.73
51083;BME280;37131;42.694;23.350;2023-01-29T06:48:22;95792.78;;;0.35;99.50
51083;BME280;37131;42.694;23.350;2023-01-29T06:50:47;95784.44;;;0.15;100.00
51083;BME280;37131;42.694;23.350;2023-01-29T06:53:16;95792.78;;;0.17;100.00
51083;BME280;37131;42.694;23.350;2023-01-29T06:55:43;95799.72;;;0.25;99.99
51083;BME280;37131;42.694;23.350;2023-01-29T06:58:14;95795.03;;;0.38;99.98
51083;BME280;37131;42.694;23.350;2023-01-29T07:00:40;95802.09;;;0.36;99.14
51083;BME280;37131;42.694;23.350;2023-01-29T07:03:05;95797.06;;;0.70;96.51
51083;BME280;37131;42.694;23.350;2023-01-29T07:05:30;95803.59;;;0.65;97.29
51083;BME280;37131;42.694;23.350;2023-01-29T07:07:56;95803.03;;;0.53;96.86
51083;BME280;37131;42.694;23.350;2023-01-29T07:10:22;95808.97;;;0.72;95.68
51083;BME280;37131;42.694;23.350;2023-01-29T07:12:48;95809.03;;;0.62;95.07
51083;BME280;37131;42.694;23.350;2023-01-29T07:15:13;95805.88;;;0.50;96.21
51083;BME280;37131;42.694;23.350;2023-01-29T07:17:43;95812.44;;;0.88;94.80
51083;BME280;37131;42.694;23.350;2023-01-29T07:20:09;95823.00;;;0.59;94.33
51083;BME280;37131;42.694;23.350;2023-01-29T07:22:35;95823.13;;;0.76;93.62
51083;BME280;37131;42.694;23.350;2023-01-29T07:25:00;95818.28;;;0.73;94.76
51083;BME280;37131;42.694;23.350;2023-01-29T07:27:26;95808.94;;;0.90;94.31
51083;BME280;37131;42.694;23.350;2023-01-29T07:29:51;95822.06;;;0.86;92.77
51083;BME280;37131;42.694;23.350;2023-01-29T07:32:17;95773.72;;;0.56;94.16
51083;BME280;37131;42.694;23.350;2023-01-29T07:34:42;95825.97;;;0.91;93.78
51083;BME280;37131;42.694;23.350;2023-01-29T07:37:07;95828.44;;;0.82;93.76
51083;BME280;37131;42.694;23.350;2023-01-29T07:39:33;95831.16;;;0.81;92.92
51083;BME280;37131;42.694;23.350;2023-01-29T07:41:58;95832.00;;;1.08;92.16
51083;BME280;37131;42.694;23.350;2023-01-29T07:44:24;95830.38;;;0.80;92.46
51083;BME280;37131;42.694;23.350;2023-01-29T07:46:49;95828.41;;;0.56;93.27
51083;BME280;37131;42.694;23.350;2023-01-29T07:49:15;95809.63;;;0.38;94.52
51083;BME280;37131;42.694;23.350;2023-01-29T07:51:40;95810.56;;;0.19;95.25
51083;BME280;37131;42.694;23.350;2023-01-29T07:54:06;95830.16;;;0.56;96.65
51083;BME280;37131;42.694;23.350;2023-01-29T07:56:31;95836.47;;;0.61;95.14
51083;BME280;37131;42.694;23.350;2023-01-29T07:58:56;95803.13;;;0.25;95.63
51083;BME280;37131;42.694;23.350;2023-01-29T08:01:22;95839.97;;;0.42;97.45
51083;BME280;37131;42.694;23.350;2023-01-29T08:03:47;95841.75;;;0.42;96.96
51083;BME280;37131;42.694;23.350;2023-01-29T08:06:13;95838.75;;;0.46;97.87
51083;BME280;37131;42.694;23.350;2023-01-29T08:08:39;95841.91;;;0.58;97.70
51083;BME280;37131;42.694;23.350;2023-01-29T08:11:04;95849.06;;;0.55;96.25
51083;BME280;37131;42.694;23.350;2023-01-29T08:13:30;95789.63;;;0.23;95.28
51083;BME280;37131;42.694;23.350;2023-01-29T08:16:03;95847.91;;;0.49;94.44
51083;BME280;37131;42.694;23.350;2023-01-29T08:18:29;95851.94;;;0.51;95.92
51083;BME280;37131;42.694;23.350;2023-01-29T08:21:02;95848.72;;;0.67;94.32
51083;BME280;37131;42.694;23.350;2023-01-29T08:23:27;95848.03;;;0.83;94.21
51083;BME280;37131;42.694;23.350;2023-01-29T08:25:53;95848.84;;;0.66;92.80
51083;BME280;37131;42.694;23.350;2023-01-29T08:28:18;95846.00;;;0.51;93.29
51083;BME280;37131;42.694;23.350;2023-01-29T08:30:44;95849.84;;;0.91;92.07
51083;BME280;37131;42.694;23.350;2023-01-29T08:33:09;95845.81;;;0.88;92.66
51083;BME280;37131;42.694;23.350;2023-01-29T08:35:35;95864.47;;;0.91;90.92
51083;BME280;37131;42.694;23.350;2023-01-29T08:38:02;95864.78;;;0.87;90.45
51083;BME280;37131;42.694;23.350;2023-01-29T08:40:30;95850.97;;;0.88;90.07
51083;BME280;37131;42.694;23.350;2023-01-29T08:43:04;95864.47;;;0.91;90.00
51083;BME280;37131;42.694;23.350;2023-01-29T08:45:32;95863.44;;;1.28;88.54
51083;BME280;37131;42.694;23.350;2023-01-29T08:47:58;95858.06;;;1.39;88.47
51083;BME280;37131;42.694;23.350;2023-01-29T08:50:23;95866.22;;;1.34;87.53
51083;BME280;37131;42.694;23.350;2023-01-29T08:52:49;95868.59;;;1.28;87.67
51083;BME280;37131;42.694;23.350;2023-01-29T08:55:15;95886.06;;;1.06;87.26
51083;BME280;37131;42.694;23.350;2023-01-29T08:57:40;95876.19;;;1.11;88.01
51083;BME280;37131;42.694;23.350;2023-01-29T09:00:07;95870.22;;;1.11;88.07
51083;BME280;37131;42.694;23.350;2023-01-29T09:02:34;95833.28;;;0.85;87.21
51083;BME280;37131;42.694;23.350;2023-01-29T09:04:59;95810.06;;;0.69;86.43
51083;BME280;37131;42.694;23.350;2023-01-29T09:07:25;95878.44;;;1.14;86.40
51083;BME280;37131;42.694;23.350;2023-01-29T09:09:50;95883.69;;;1.31;86.12
51083;BME280;37131;42.694;23.350;2023-01-29T09:12:15;95889.47;;;1.33;86.39
51083;BME280;37131;42.694;23.350;2023-01-29T09:14:41;95878.78;;;1.37;88.01
51083;BME280;37131;42.694;23.350;2023-01-29T09:17:06;95881.91;;;1.49;86.79
51083;BME280;37131;42.694;23.350;2023-01-29T09:19:31;95875.03;;;1.58;86.08
51083;BME280;37131;42.694;23.350;2023-01-29T09:21:57;95878.59;;;1.65;83.78
51083;BME280;37131;42.694;23.350;2023-01-29T09:24:23;95882.69;;;1.23;85.77
51083;BME280;37131;42.694;23.350;2023-01-29T09:26:48;95879.81;;;1.27;85.36
51083;BME280;37131;42.694;23.350;2023-01-29T09:29:14;95873.63;;;1.11;86.11
51083;BME280;37131;42.694;23.350;2023-01-29T09:31:39;95881.66;;;1.16;86.94
51083;BME280;37131;42.694;23.350;2023-01-29T09:34:04;95877.88;;;1.02;87.38
51083;BME280;37131;42.694;23.350;2023-01-29T09:36:30;95871.09;;;1.19;87.69
51083;BME280;37131;42.694;23.350;2023-01-29T09:38:55;95864.41;;;1.27;86.66
51083;BME280;37131;42.694;23.350;2023-01-29T09:41:48;95869.84;;;1.23;86.38
51083;BME280;37131;42.694;23.350;2023-01-29T09:44:18;95869.00;;;1.41;84.99
51083;BME280;37131;42.694;23.350;2023-01-29T09:46:50;95866.31;;;1.25;85.30
51083;BME280;37131;42.694;23.350;2023-01-29T09:49:25;95866.16;;;1.26;84.90
51083;BME280;37131;42.694;23.350;2023-01-29T09:52:12;95862.81;;;1.26;85.16
51083;BME280;37131;42.694;23.350;2023-01-29T09:57:47;95866.97;;;1.53;84.81
51083;BME280;37131;42.694;23.350;2023-01-29T10:00:24;95865.91;;;1.11;85.22
51083;BME280;37131;42.694;23.350;2023-01-29T10:11:27;95857.91;;;1.14;87.39
51083;BME280;37131;42.694;23.350;2023-01-29T10:14:19;95851.44;;;1.10;87.00
51083;BME280;37131;42.694;23.350;2023-01-29T10:23:19;95849.13;;;1.25;86.42
51083;BME280;37131;42.694;23.350;2023-01-29T10:25:46;95842.13;;;1.09;86.64
51083;BME280;37131;42.694;23.350;2023-01-29T10:31:04;95843.28;;;1.15;85.53
51083;BME280;37131;42.694;23.350;2023-01-29T10:33:39;95842.13;;;1.35;85.35
51083;BME280;37131;42.694;23.350;2023-01-29T10:36:09;95830.78;;;0.94;86.46
51083;BME280;37131;42.694;23.350;2023-01-29T10:38:47;95834.06;;;1.04;87.19
51083;BME280;37131;42.694;23.350;2023-01-29T10:41:38;95836.38;;;0.89;88.33
51083;BME280;37131;42.694;23.350;2023-01-29T11:00:40;95817.19;;;1.01;88.98
51083;BME280;37131;42.694;23.350;2023-01-29T11:03:26;95745.06;;;0.86;87.23
51083;BME280;37131;42.694;23.350;2023-01-29T11:08:27;95766.66;;;1.02;86.14
51083;BME280;37131;42.694;23.350;2023-01-29T11:11:03;95811.03;;;0.94;87.08
51083;BME280;37131;42.694;23.350;2023-01-29T11:13:36;95816.59;;;1.08;87.14
51083;BME280;37131;42.694;23.350;2023-01-29T11:16:04;95812.06;;;1.28;87.23
51083;BME280;37131;42.694;23.350;2023-01-29T11:18:53;95814.78;;;1.00;88.35
51083;BME280;37131;42.694;23.350;2023-01-29T11:21:19;95798.91;;;1.04;88.12
51083;BME280;37131;42.694;23.350;2023-01-29T11:23:45;95806.47;;;1.06;87.04
51083;BME280;37131;42.694;23.350;2023-01-29T11:26:12;95806.22;;;1.17;87.74
51083;BME280;37131;42.694;23.350;2023-01-29T11:28:48;95807.63;;;1.38;87.26
51083;BME280;37131;42.694;23.350;2023-01-29T11:31:25;95801.09;;;1.17;88.19
51083;BME280;37131;42.694;23.350;2023-01-29T11:34:02;95794.59;;;1.05;89.31
51083;BME280;37131;42.694;23.350;2023-01-29T11:36:37;95794.84;;;1.20;87.70
51083;BME280;37131;42.694;23.350;2023-01-29T11:50:00;95776.81;;;1.12;87.59
51083;BME280;37131;42.694;23.350;2023-01-29T11:52:34;95780.69;;;0.90;88.50
51083;BME280;37131;42.694;23.350;2023-01-29T11:55:15;95777.56;;;1.30;88.01
51083;BME280;37131;42.694;23.350;2023-01-29T11:57:44;95750.78;;;1.41;87.61
51083;BME280;37131;42.694;23.350;2023-01-29T12:00:25;95768.53;;;1.52;87.06
51083;BME280;37131;42.694;23.350;2023-01-29T12:03:05;95765.59;;;1.47;84.78
51083;BME280;37131;42.694;23.350;2023-01-29T12:05:32;95744.66;;;1.34;85.76
51083;BME280;37131;42.694;23.350;2023-01-29T12:07:59;95765.22;;;1.77;84.02
51083;BME280;37131;42.694;23.350;2023-01-29T12:10:37;95716.38;;;1.26;85.33
51083;BME280;37131;42.694;23.350;2023-01-29T12:13:25;95765.97;;;1.61;85.14
51083;BME280;37131;42.694;23.350;2023-01-29T12:16:26;95762.91;;;1.65;84.41
51083;BME280;37131;42.694;23.350;2023-01-29T12:18:55;95769.47;;;1.51;83.31
51083;BME280;37131;42.694;23.350;2023-01-29T12:21:44;95771.88;;;1.18;86.04
51083;BME280;37131;42.694;23.350;2023-01-29T12:24:27;95767.69;;;1.44;85.17
51083;BME280;37131;42.694;23.350;2023-01-29T12:32:49;95767.22;;;1.48;83.25
51083;BME280;37131;42.694;23.350;2023-01-29T12:35:47;95755.94;;;1.41;83.43
51083;BME280;37131;42.694;23.350;2023-01-29T12:40:45;95762.84;;;1.91;81.25
51083;BME280;37131;42.694;23.350;2023-01-29T12:43:16;95752.72;;;1.90;82.32
51083;BME280;37131;42.694;23.350;2023-01-29T12:45:44;95742.47;;;1.98;82.49
51083;BME280;37131;42.694;23.350;2023-01-29T12:48:20;95768.03;;;2.08;82.04
51083;BME280;37131;42.694;23.350;2023-01-29T12:50:48;95754.69;;;2.04;80.55
51083;BME280;37131;42.694;23.350;2023-01-29T12:53:30;95765.94;;;2.20;80.90
51083;BME280;37131;42.694;23.350;2023-01-29T12:56:03;95762.66;;;1.77;81.35
51083;BME280;37131;42.694;23.350;2023-01-29T12:58:48;95765.28;;;2.01;80.84
51083;BME280;37131;42.694;23.350;2023-01-29T13:01:29;95759.13;;;1.86;81.01
51083;BME280;37131;42.694;23.350;2023-01-29T13:04:08;95756.41;;;1.87;81.59
51083;BME280;37131;42.694;23.350;2023-01-29T13:06:43;95758.19;;;1.87;81.93
51083;BME280;37131;42.694;23.350;2023-01-29T13:09:37;95763.28;;;1.79;84.74
51083;BME280;37131;42.694;23.350;2023-01-29T13:12:12;95705.34;;;1.42;81.54
51083;BME280;37131;42.694;23.350;2023-01-29T13:17:23;95750.81;;;1.92;81.24
51083;BME280;37131;42.694;23.350;2023-01-29T13:19:57;95753.69;;;1.89;81.22
51083;BME280;37131;42.694;23.350;2023-01-29T13:22:31;95755.41;;;1.72;79.64
51083;BME280;37131;42.694;23.350;2023-01-29T13:24:58;95758.97;;;1.79;80.75
51083;BME280;37131;42.694;23.350;2023-01-29T13:27:25;95755.63;;;1.44;81.45
51083;BME280;37131;42.694;23.350;2023-01-29T13:29:52;95756.94;;;1.56;83.71
51083;BME280;37131;42.694;23.350;2023-01-29T13:32:24;95764.34;;;1.51;83.10
51083;BME280;37131;42.694;23.350;2023-01-29T13:34:53;95764.03;;;1.54;82.56
51083;BME280;37131;42.694;23.350;2023-01-29T13:37:49;95770.84;;;1.72;83.15
51083;BME280;37131;42.694;23.350;2023-01-29T13:40:20;95770.38;;;1.77;81.81
51083;BME280;37131;42.694;23.350;2023-01-29T13:42:49;95786.72;;;1.67;81.46
51083;BME280;37131;42.694;23.350;2023-01-29T13:48:08;95789.59;;;1.30;81.86
51083;BME280;37131;42.694;23.350;2023-01-29T13:50:39;95793.69;;;1.40;82.94
51083;BME280;37131;42.694;23.350;2023-01-29T13:53:07;95783.94;;;1.52;82.66
51083;BME280;37131;42.694;23.350;2023-01-29T13:55:41;95785.72;;;1.60;81.68
51083;BME280;37131;42.694;23.350;2023-01-29T14:10:38;95787.56;;;1.42;81.47
51083;BME280;37131;42.694;23.350;2023-01-29T14:15:36;95793.09;;;1.55;80.98
51083;BME280;37131;42.694;23.350;2023-01-29T14:20:38;95799.16;;;1.46;80.75
51083;BME280;37131;42.694;23.350;2023-01-29T14:23:06;95805.31;;;1.27;81.62
51083;BME280;37131;42.694;23.350;2023-01-29T14:25:37;95804.97;;;1.56;81.57
51083;BME280;37131;42.694;23.350;2023-01-29T14:28:13;95808.34;;;1.22;82.45
51083;BME280;37131;42.694;23.350;2023-01-29T14:30:39;95813.78;;;1.19;83.41
51083;BME280;37131;42.694;23.350;2023-01-29T14:33:24;95816.97;;;1.39;83.28
51083;BME280;37131;42.694;23.350;2023-01-29T14:35:51;95822.94;;;1.48;82.85
51083;BME280;37131;42.694;23.350;2023-01-29T14:38:17;95799.78;;;1.39;82.62
51083;BME280;37131;42.694;23.350;2023-01-29T14:40:45;95827.66;;;1.61;82.46
51083;BME280;37131;42.694;23.350;2023-01-29T14:43:20;95819.78;;;1.28;82.17
51083;BME280;37131;42.694;23.350;2023-01-29T14:45:48;95820.94;;;1.33;83.73
51083;BME280;37131;42.694;23.350;2023-01-29T14:51:04;95819.84;;;1.36;83.51
51083;BME280;37131;42.694;23.350;2023-01-29T14:53:55;95807.06;;;1.00;84.87
51083;BME280;37131;42.694;23.350;2023-01-29T14:56:44;95821.03;;;1.23;84.00
51083;BME280;37131;42.694;23.350;2023-01-29T14:59:28;95813.28;;;0.89;85.37
51083;BME280;37131;42.694;23.350;2023-01-29T15:01:57;95771.81;;;0.58;85.84
51083;BME280;37131;42.694;23.350;2023-01-29T15:04:27;95826.66;;;1.01;85.13
51083;BME280;37131;42.694;23.350;2023-01-29T15:07:05;95823.09;;;0.94;87.67
51083;BME280;37131;42.694;23.350;2023-01-29T15:09:41;95825.81;;;0.92;86.56
51083;BME280;37131;42.694;23.350;2023-01-29T15:12:28;95826.66;;;1.01;85.23
51083;BME280;37131;42.694;23.350;2023-01-29T15:17:53;95827.00;;;1.06;84.90
51083;BME280;37131;42.694;23.350;2023-01-29T15:20:33;95827.28;;;0.77;87.10
51083;BME280;37131;42.694;23.350;2023-01-29T15:22:59;95826.59;;;0.93;87.71